createdAt,value
2023-04-12T00:00:59.194Z,0.00
2023-04-12T00:01:59.244Z,0.00
2023-04-12T00:02:59.257Z,0.00
2023-04-12T00:03:59.470Z,0.00
2023-04-12T00:04:59.253Z,0.00
2023-04-12T00:05:59.139Z,0.00
2023-04-12T00:06:59.149Z,0.00
2023-04-12T00:07:59.126Z,0.00
2023-04-12T00:08:59.114Z,0.00
2023-04-12T00:09:59.520Z,0.00
2023-04-12T00:10:59.119Z,0.00
2023-04-12T00:11:59.080Z,0.00
2023-04-12T00:12:59.099Z,0.00
2023-04-12T00:13:59.114Z,0.00
2023-04-12T00:14:59.059Z,0.00
2023-04-12T00:15:59.156Z,0.00
2023-04-12T00:16:59.028Z,0.00
2023-04-12T00:17:59.103Z,0.00
2023-04-12T00:18:59.453Z,0.00
2023-04-12T00:19:59.010Z,0.00
2023-04-12T00:20:59.025Z,0.00
2023-04-12T00:21:58.991Z,0.00
2023-04-12T00:22:58.991Z,0.00
2023-04-12T00:23:59.249Z,0.00
2023-04-12T00:24:58.989Z,0.00
2023-04-12T00:25:58.960Z,0.00
2023-04-12T00:26:59.030Z,0.00
2023-04-12T00:27:58.932Z,0.00
2023-04-12T00:28:58.935Z,0.00
2023-04-12T00:29:58.905Z,0.00
2023-04-12T00:30:58.966Z,0.00
2023-04-12T00:31:58.898Z,0.00
2023-04-12T00:32:58.944Z,0.00
2023-04-12T00:33:59.133Z,0.00
2023-04-12T00:34:58.888Z,0.00
2023-04-12T00:35:58.879Z,0.00
2023-04-12T00:36:58.865Z,0.00
2023-04-12T00:37:58.818Z,0.00
2023-04-12T00:38:58.838Z,0.00
2023-04-12T00:39:58.809Z,0.00
2023-04-12T00:40:58.827Z,0.00
2023-04-12T00:41:58.787Z,0.00
2023-04-12T00:42:58.796Z,0.00
2023-04-12T00:43:59.150Z,0.00
2023-04-12T00:44:58.790Z,0.00
2023-04-12T00:45:58.747Z,0.00
2023-04-12T00:46:58.774Z,0.00
2023-04-12T00:47:58.765Z,0.00
2023-04-12T00:48:58.718Z,0.00
2023-04-12T00:49:58.692Z,0.00
2023-04-12T00:50:58.713Z,0.00
2023-04-12T00:51:58.670Z,0.00
2023-04-12T00:52:58.671Z,0.00
2023-04-12T00:53:58.802Z,0.00
2023-04-12T00:54:58.654Z,0.00
2023-04-12T00:55:58.689Z,0.00
2023-04-12T00:56:58.645Z,0.00
2023-04-12T00:57:58.602Z,0.00
2023-04-12T00:58:58.670Z,0.00
2023-04-12T00:59:58.603Z,0.00
2023-04-12T01:00:58.606Z,0.00
2023-04-12T01:01:58.675Z,0.00
2023-04-12T01:02:58.704Z,0.00
2023-04-12T01:03:58.800Z,0.00
2023-04-12T01:04:58.597Z,0.00
2023-04-12T01:05:58.529Z,0.00
2023-04-12T01:06:58.572Z,0.00
2023-04-12T01:07:58.509Z,0.00
2023-04-12T01:08:58.563Z,0.00
2023-04-12T01:09:58.493Z,0.00
2023-04-12T01:10:58.481Z,0.00
2023-04-12T01:11:58.466Z,0.00
2023-04-12T01:12:58.461Z,0.00
2023-04-12T01:13:58.557Z,0.00
2023-04-12T01:14:58.446Z,0.00
2023-04-12T01:15:58.500Z,0.00
2023-04-12T01:16:58.478Z,0.00
2023-04-12T01:17:58.537Z,0.00
2023-04-12T01:18:58.394Z,0.00
2023-04-12T01:19:58.415Z,0.00
2023-04-12T01:20:58.419Z,0.00
2023-04-12T01:21:58.405Z,0.00
2023-04-12T01:22:58.358Z,0.00
2023-04-12T01:23:58.543Z,0.00
2023-04-12T01:24:58.355Z,0.00
2023-04-12T01:25:58.394Z,0.00
2023-04-12T01:26:58.337Z,0.00
2023-04-12T01:27:58.335Z,0.00
2023-04-12T01:28:58.359Z,0.00
2023-04-12T01:29:58.403Z,0.00
2023-04-12T01:30:58.394Z,0.00
2023-04-12T01:31:58.367Z,0.00
2023-04-12T01:32:58.433Z,0.00
2023-04-12T01:33:58.678Z,0.00
2023-04-12T01:34:58.301Z,0.00
2023-04-12T01:35:58.431Z,0.00
2023-04-12T01:36:58.306Z,0.00
2023-04-12T01:37:58.375Z,0.00
2023-04-12T01:38:58.334Z,0.00
2023-04-12T01:39:58.225Z,0.00
2023-04-12T01:40:58.460Z,0.00
2023-04-12T01:41:58.311Z,0.00
2023-04-12T01:42:58.268Z,0.00
2023-04-12T01:43:58.772Z,0.00
2023-04-12T01:44:58.230Z,0.00
2023-04-12T01:45:58.300Z,0.00
2023-04-12T01:46:58.317Z,0.00
2023-04-12T01:47:58.439Z,0.00
2023-04-12T01:48:58.264Z,0.00
2023-04-12T01:49:58.160Z,0.00
2023-04-12T01:50:58.297Z,0.00
2023-04-12T01:51:58.100Z,0.00
2023-04-12T01:52:58.218Z,0.00
2023-04-12T01:53:58.363Z,0.00
2023-04-12T01:54:58.316Z,0.00
2023-04-12T01:55:58.184Z,0.00
2023-04-12T01:56:58.174Z,0.00
2023-04-12T01:57:58.027Z,0.00
2023-04-12T01:58:58.383Z,0.00
2023-04-12T01:59:58.192Z,0.00
2023-04-12T02:00:57.997Z,0.00
2023-04-12T02:01:58.034Z,0.00
2023-04-12T02:02:58.100Z,0.00
2023-04-12T02:03:58.291Z,0.00
2023-04-12T02:04:57.947Z,0.00
2023-04-12T02:05:57.967Z,0.00
2023-04-12T02:06:57.951Z,0.00
2023-04-12T02:07:58.123Z,0.00
2023-04-12T02:08:57.975Z,0.00
2023-04-12T02:09:58.003Z,0.00
2023-04-12T02:10:57.901Z,0.00
2023-04-12T02:11:57.855Z,0.00
2023-04-12T02:12:57.849Z,0.00
2023-04-12T02:13:58.000Z,0.00
2023-04-12T02:14:57.821Z,0.00
2023-04-12T02:15:57.796Z,0.00
2023-04-12T02:16:57.865Z,0.00
2023-04-12T02:17:57.816Z,0.00
2023-04-12T02:18:57.820Z,0.00
2023-04-12T02:19:57.747Z,0.00
2023-04-12T02:20:57.778Z,0.00
2023-04-12T02:21:57.799Z,0.00
2023-04-12T02:22:57.745Z,0.00
2023-04-12T02:23:57.966Z,0.00
2023-04-12T02:24:57.721Z,0.00
2023-04-12T02:25:57.701Z,0.00
2023-04-12T02:26:57.713Z,0.00
2023-04-12T02:27:57.665Z,0.00
2023-04-12T02:28:57.672Z,0.00
2023-04-12T02:29:57.664Z,0.00
2023-04-12T02:30:57.753Z,0.00
2023-04-12T02:31:57.686Z,0.00
2023-04-12T02:32:57.724Z,0.00
2023-04-12T02:33:57.908Z,0.00
2023-04-12T02:34:57.656Z,0.00
2023-04-12T02:35:57.652Z,0.00
2023-04-12T02:36:57.611Z,0.00
2023-04-12T02:37:57.744Z,0.00
2023-04-12T02:38:57.615Z,0.00
2023-04-12T02:39:57.557Z,0.00
2023-04-12T02:40:57.612Z,0.00
2023-04-12T02:41:57.531Z,0.00
2023-04-12T02:42:57.623Z,0.00
2023-04-12T02:43:57.793Z,0.00
2023-04-12T02:44:57.514Z,0.00
2023-04-12T02:45:57.537Z,0.00
2023-04-12T02:46:57.483Z,0.00
2023-04-12T02:47:57.506Z,0.00
2023-04-12T02:48:57.475Z,0.00
2023-04-12T02:49:57.453Z,0.00
2023-04-12T02:50:57.453Z,0.00
2023-04-12T02:51:57.453Z,0.00
2023-04-12T02:52:57.414Z,0.00
2023-04-12T02:53:57.635Z,0.00
2023-04-12T02:54:57.442Z,0.00
2023-04-12T02:55:57.378Z,0.00
2023-04-12T02:56:57.389Z,0.00
2023-04-12T02:57:57.379Z,0.00
2023-04-12T02:58:57.360Z,0.00
2023-04-12T02:59:57.398Z,0.00
2023-04-12T03:00:57.430Z,0.00
2023-04-12T03:01:57.390Z,0.00
2023-04-12T03:02:57.540Z,0.00
2023-04-12T03:03:57.554Z,0.00
2023-04-12T03:04:57.331Z,0.00
2023-04-12T03:05:57.288Z,0.00
2023-04-12T03:06:57.287Z,0.00
2023-04-12T03:07:57.282Z,0.00
2023-04-12T03:08:57.332Z,0.00
2023-04-12T03:09:57.277Z,0.00
2023-04-12T03:10:57.242Z,0.00
2023-04-12T03:11:57.224Z,0.00
2023-04-12T03:12:57.226Z,0.00
2023-04-12T03:13:57.497Z,0.00
2023-04-12T03:14:57.196Z,0.00
2023-04-12T03:15:57.275Z,0.00
2023-04-12T03:16:57.165Z,0.00
2023-04-12T03:17:57.300Z,0.00
2023-04-12T03:18:57.178Z,0.00
2023-04-12T03:19:57.170Z,0.00
2023-04-12T03:20:57.134Z,0.00
2023-04-12T03:21:57.107Z,0.00
2023-04-12T03:22:57.117Z,0.00
2023-04-12T03:23:57.398Z,0.00
2023-04-12T03:24:57.088Z,0.00
2023-04-12T03:25:57.088Z,0.00
2023-04-12T03:26:57.114Z,0.00
2023-04-12T03:27:57.065Z,0.00
2023-04-12T03:28:57.049Z,0.00
2023-04-12T03:29:57.047Z,0.00
2023-04-12T03:30:57.124Z,0.00
2023-04-12T03:31:57.021Z,0.00
2023-04-12T03:32:57.124Z,0.00
2023-04-12T03:33:57.248Z,0.00
2023-04-12T03:34:57.005Z,0.00
2023-04-12T03:35:56.961Z,0.00
2023-04-12T03:36:57.079Z,0.00
2023-04-12T03:37:56.950Z,0.00
2023-04-12T03:38:56.940Z,0.00
2023-04-12T03:39:56.956Z,0.00
2023-04-12T03:40:56.914Z,0.00
2023-04-12T03:41:56.911Z,0.00
2023-04-12T03:42:56.917Z,0.00
2023-04-12T03:43:57.103Z,0.00
2023-04-12T03:44:56.911Z,0.00
2023-04-12T03:45:56.863Z,0.00
2023-04-12T03:46:56.925Z,0.00
2023-04-12T03:47:56.916Z,0.00
2023-04-12T03:48:56.839Z,0.00
2023-04-12T03:50:11.043Z,0.00
2023-04-12T03:50:56.847Z,0.00
2023-04-12T03:51:56.835Z,0.00
2023-04-12T03:52:56.815Z,0.00
2023-04-12T03:53:57.136Z,0.00
2023-04-12T03:54:56.762Z,0.00
2023-04-12T03:55:56.783Z,0.00
2023-04-12T03:56:56.792Z,0.00
2023-04-12T03:57:56.773Z,0.00
2023-04-12T03:58:56.724Z,0.00
2023-04-12T03:59:56.747Z,0.00
2023-04-12T04:00:56.713Z,0.00
2023-04-12T04:01:56.788Z,0.00
2023-04-12T04:02:56.804Z,0.00
2023-04-12T04:03:57.266Z,0.00
2023-04-12T04:04:56.715Z,0.00
2023-04-12T04:05:56.660Z,0.00
2023-04-12T04:06:56.683Z,0.00
2023-04-12T04:07:56.686Z,0.00
2023-04-12T04:08:56.633Z,0.00
2023-04-12T04:09:56.652Z,0.00
2023-04-12T04:10:56.615Z,0.00
2023-04-12T04:11:56.601Z,0.00
2023-04-12T04:12:56.767Z,0.00
2023-04-12T04:13:56.726Z,0.00
2023-04-12T04:14:56.576Z,0.00
2023-04-12T04:15:56.640Z,0.00
2023-04-12T04:16:56.560Z,0.00
2023-04-12T04:17:56.593Z,0.00
2023-04-12T04:18:56.475Z,0.00
2023-04-12T04:19:56.527Z,0.00
2023-04-12T04:20:56.481Z,0.00
2023-04-12T04:21:56.477Z,0.00
2023-04-12T04:22:56.558Z,0.00
2023-04-12T04:23:56.637Z,0.00
2023-04-12T04:24:56.413Z,0.00
2023-04-12T04:25:56.422Z,0.00
2023-04-12T04:26:56.408Z,0.00
2023-04-12T04:27:56.411Z,0.00
2023-04-12T04:28:56.397Z,0.00
2023-04-12T04:29:56.371Z,0.00
2023-04-12T04:30:56.394Z,0.00
2023-04-12T04:31:56.400Z,0.00
2023-04-12T04:32:56.428Z,0.00
2023-04-12T04:33:56.456Z,0.00
2023-04-12T04:34:56.382Z,0.00
2023-04-12T04:35:56.326Z,0.00
2023-04-12T04:36:56.318Z,0.00
2023-04-12T04:37:56.286Z,0.00
2023-04-12T04:38:56.250Z,0.00
2023-04-12T04:39:56.315Z,0.00
2023-04-12T04:40:56.250Z,0.00
2023-04-12T04:41:56.300Z,0.00
2023-04-12T04:42:56.244Z,0.00
2023-04-12T04:43:56.518Z,0.00
2023-04-12T04:44:56.212Z,0.00
2023-04-12T04:45:56.289Z,0.00
2023-04-12T04:46:56.174Z,0.00
2023-04-12T04:47:56.248Z,0.00
2023-04-12T04:48:56.158Z,0.00
2023-04-12T04:49:56.204Z,0.00
2023-04-12T04:50:56.141Z,0.00
2023-04-12T04:51:56.142Z,0.00
2023-04-12T04:52:56.114Z,0.00
2023-04-12T04:53:56.232Z,0.00
2023-04-12T04:54:56.088Z,0.00
2023-04-12T04:55:56.142Z,0.00
2023-04-12T04:56:56.072Z,0.00
2023-04-12T04:57:56.073Z,0.00
2023-04-12T04:58:57.125Z,0.00
2023-04-12T04:59:56.070Z,0.00
2023-04-12T05:00:56.089Z,0.00
2023-04-12T05:01:56.046Z,0.00
2023-04-12T05:02:56.123Z,0.00
2023-04-12T05:03:56.413Z,0.00
2023-04-12T05:04:56.006Z,0.00
2023-04-12T05:05:56.005Z,0.00
2023-04-12T05:06:55.966Z,0.00
2023-04-12T05:07:56.024Z,0.00
2023-04-12T05:08:56.174Z,0.00
2023-04-12T05:09:55.976Z,0.00
2023-04-12T05:10:55.933Z,0.00
2023-04-12T05:11:55.925Z,0.00
2023-04-12T05:12:55.926Z,0.00
2023-04-12T05:13:55.934Z,0.00
2023-04-12T05:15:10.592Z,0.00
2023-04-12T05:15:55.938Z,0.00
2023-04-12T05:16:55.932Z,5.62
2023-04-12T05:17:55.926Z,5.62
2023-04-12T05:18:56.129Z,5.62
2023-04-12T05:19:55.854Z,5.62
2023-04-12T05:20:55.904Z,5.62
2023-04-12T05:21:55.833Z,5.62
2023-04-12T05:22:55.844Z,5.62
2023-04-12T05:23:55.805Z,5.62
2023-04-12T05:24:55.776Z,5.62
2023-04-12T05:25:55.784Z,5.62
2023-04-12T05:26:55.760Z,5.62
2023-04-12T05:27:55.834Z,5.62
2023-04-12T05:28:56.028Z,5.62
2023-04-12T05:29:55.731Z,5.62
2023-04-12T05:30:55.998Z,5.62
2023-04-12T05:31:55.748Z,5.62
2023-04-12T05:32:55.740Z,5.62
2023-04-12T05:33:55.706Z,5.62
2023-04-12T05:34:55.670Z,5.62
2023-04-12T05:35:55.674Z,5.62
2023-04-12T05:36:55.683Z,5.62
2023-04-12T05:37:55.676Z,5.62
2023-04-12T05:38:55.823Z,5.62
2023-04-12T05:39:55.632Z,5.62
2023-04-12T05:40:55.616Z,5.62
2023-04-12T05:41:55.622Z,5.62
2023-04-12T05:42:55.620Z,5.62
2023-04-12T05:43:55.620Z,5.62
2023-04-12T05:44:55.579Z,5.62
2023-04-12T05:45:55.674Z,5.62
2023-04-12T05:46:55.547Z,5.62
2023-04-12T05:47:55.725Z,5.62
2023-04-12T05:48:55.797Z,5.62
2023-04-12T05:49:55.720Z,5.62
2023-04-12T05:50:55.513Z,5.62
2023-04-12T05:51:55.523Z,5.62
2023-04-12T05:52:55.543Z,5.62
2023-04-12T05:53:55.486Z,5.62
2023-04-12T05:54:55.486Z,5.62
2023-04-12T05:55:55.477Z,5.62
2023-04-12T05:56:55.518Z,5.62
2023-04-12T05:57:55.503Z,5.62
2023-04-12T05:58:55.634Z,5.62
2023-04-12T05:59:55.466Z,5.62
2023-04-12T06:00:55.413Z,5.62
2023-04-12T06:01:55.517Z,5.62
2023-04-12T06:02:55.607Z,5.62
2023-04-12T06:03:55.568Z,5.62
2023-04-12T06:04:55.594Z,5.62
2023-04-12T06:05:55.378Z,5.62
2023-04-12T06:06:55.632Z,5.62
2023-04-12T06:07:55.390Z,5.62
2023-04-12T06:08:56.112Z,11.25
2023-04-12T06:09:55.348Z,11.25
2023-04-12T06:10:55.553Z,11.25
2023-04-12T06:11:55.383Z,11.25
2023-04-12T06:12:55.368Z,11.25
2023-04-12T06:13:55.317Z,16.88
2023-04-12T06:14:55.418Z,16.88
2023-04-12T06:15:55.466Z,16.88
2023-04-12T06:16:55.648Z,16.88
2023-04-12T06:17:55.397Z,16.88
2023-04-12T06:18:55.603Z,11.25
2023-04-12T06:19:55.428Z,11.25
2023-04-12T06:20:55.589Z,11.25
2023-04-12T06:21:55.368Z,11.25
2023-04-12T06:22:55.219Z,16.88
2023-04-12T06:23:55.318Z,11.25
2023-04-12T06:24:55.314Z,11.25
2023-04-12T06:25:55.510Z,16.88
2023-04-12T06:26:55.567Z,16.88
2023-04-12T06:27:55.530Z,16.88
2023-04-12T06:28:55.502Z,16.88
2023-04-12T06:29:55.110Z,16.88
2023-04-12T06:30:55.139Z,16.88
2023-04-12T06:31:55.147Z,16.88
2023-04-12T06:32:55.110Z,16.88
2023-04-12T06:33:55.090Z,22.50
2023-04-12T06:34:55.142Z,22.50
2023-04-12T06:35:55.057Z,22.50
2023-04-12T06:36:55.193Z,28.12
2023-04-12T06:37:56.001Z,28.12
2023-04-12T06:38:55.641Z,28.12
2023-04-12T06:39:55.120Z,22.50
2023-04-12T06:40:55.002Z,22.50
2023-04-12T06:41:54.989Z,16.88
2023-04-12T06:42:54.983Z,16.88
2023-04-12T06:43:55.022Z,16.88
2023-04-12T06:44:55.635Z,11.25
2023-04-12T06:45:54.917Z,16.88
2023-04-12T06:46:55.045Z,16.88
2023-04-12T06:47:55.106Z,16.88
2023-04-12T06:48:54.950Z,22.50
2023-04-12T06:49:56.139Z,28.12
2023-04-12T06:50:54.887Z,28.12
2023-04-12T06:51:54.899Z,28.12
2023-04-12T06:52:55.180Z,22.50
2023-04-12T06:53:55.114Z,22.50
2023-04-12T06:54:54.828Z,22.50
2023-04-12T06:55:54.866Z,22.50
2023-04-12T06:56:54.882Z,22.50
2023-04-12T06:57:54.809Z,22.50
2023-04-12T06:58:54.867Z,28.12
2023-04-12T06:59:54.854Z,28.12
2023-04-12T07:00:54.837Z,28.12
2023-04-12T07:01:54.833Z,28.12
2023-04-12T07:02:54.915Z,22.50
2023-04-12T07:03:54.918Z,22.50
2023-04-12T07:04:54.749Z,22.50
2023-04-12T07:05:54.752Z,22.50
2023-04-12T07:06:54.747Z,22.50
2023-04-12T07:07:54.727Z,28.12
2023-04-12T07:08:55.090Z,33.75
2023-04-12T07:09:54.701Z,33.75
2023-04-12T07:10:54.765Z,33.75
2023-04-12T07:11:54.688Z,33.75
2023-04-12T07:12:54.658Z,28.12
2023-04-12T07:13:54.654Z,28.12
2023-04-12T07:14:54.633Z,28.12
2023-04-12T07:15:54.644Z,28.12
2023-04-12T07:16:54.746Z,22.50
2023-04-12T07:17:54.683Z,22.50
2023-04-12T07:18:54.615Z,22.50
2023-04-12T07:19:54.613Z,22.50
2023-04-12T07:20:54.584Z,16.88
2023-04-12T07:21:54.560Z,16.88
2023-04-12T07:22:54.644Z,22.50
2023-04-12T07:23:54.560Z,28.12
2023-04-12T07:24:54.685Z,28.12
2023-04-12T07:25:54.532Z,28.12
2023-04-12T07:26:54.877Z,22.50
2023-04-12T07:27:54.581Z,22.50
2023-04-12T07:28:54.687Z,22.50
2023-04-12T07:29:54.625Z,28.12
2023-04-12T07:30:54.468Z,28.12
2023-04-12T07:31:54.491Z,28.12
2023-04-12T07:32:58.437Z,28.12
2023-04-12T07:33:54.541Z,33.75
2023-04-12T07:34:54.553Z,33.75
2023-04-12T07:35:54.465Z,28.12
2023-04-12T07:36:54.477Z,28.12
2023-04-12T07:37:54.459Z,39.38
2023-04-12T07:38:54.513Z,33.75
2023-04-12T07:39:54.469Z,28.12
2023-04-12T07:40:54.572Z,28.12
2023-04-12T07:41:54.354Z,22.50
2023-04-12T07:42:54.350Z,22.50
2023-04-12T07:43:54.369Z,28.12
2023-04-12T07:44:54.356Z,28.12
2023-04-12T07:45:54.388Z,28.12
2023-04-12T07:46:54.371Z,28.12
2023-04-12T07:47:54.337Z,28.12
2023-04-12T07:48:54.290Z,22.50
2023-04-12T07:49:54.287Z,22.50
2023-04-12T07:50:54.317Z,22.50
2023-04-12T07:51:54.284Z,22.50
2023-04-12T07:52:54.253Z,22.50
2023-04-12T07:53:54.775Z,22.50
2023-04-12T07:54:54.277Z,22.50
2023-04-12T07:55:54.284Z,28.12
2023-04-12T07:56:54.269Z,22.50
2023-04-12T07:57:54.286Z,22.50
2023-04-12T07:58:54.402Z,22.50
2023-04-12T07:59:54.197Z,28.12
2023-04-12T08:00:54.167Z,33.75
2023-04-12T08:01:54.249Z,33.75
2023-04-12T08:02:54.575Z,33.75
2023-04-12T08:03:54.279Z,28.12
2023-04-12T08:04:54.123Z,33.75
2023-04-12T08:05:54.207Z,28.12
2023-04-12T08:06:54.125Z,28.12
2023-04-12T08:07:54.095Z,28.12
2023-04-12T08:08:54.090Z,28.12
2023-04-12T08:09:54.094Z,33.75
2023-04-12T08:10:54.069Z,33.75
2023-04-12T08:11:54.066Z,33.75
2023-04-12T08:12:54.031Z,33.75
2023-04-12T08:13:54.055Z,39.38
2023-04-12T08:14:54.028Z,39.38
2023-04-12T08:15:54.080Z,45.00
2023-04-12T08:16:54.008Z,45.00
2023-04-12T08:17:54.093Z,50.62
2023-04-12T08:18:53.967Z,50.62
2023-04-12T08:19:54.012Z,50.62
2023-04-12T08:20:53.963Z,50.62
2023-04-12T08:21:53.977Z,56.25
2023-04-12T08:22:53.944Z,56.25
2023-04-12T08:23:53.939Z,61.88
2023-04-12T08:24:53.923Z,50.62
2023-04-12T08:25:53.922Z,45.00
2023-04-12T08:26:54.026Z,39.38
2023-04-12T08:27:53.928Z,39.38
2023-04-12T08:28:53.884Z,33.75
2023-04-12T08:29:53.984Z,28.12
2023-04-12T08:30:53.869Z,22.50
2023-04-12T08:31:53.839Z,22.50
2023-04-12T08:32:54.116Z,22.50
2023-04-12T08:33:53.830Z,22.50
2023-04-12T08:34:53.851Z,16.88
2023-04-12T08:35:53.878Z,11.25
2023-04-12T08:36:53.816Z,11.25
2023-04-12T08:37:53.782Z,11.25
2023-04-12T08:38:53.780Z,11.25
2023-04-12T08:39:53.747Z,16.88
2023-04-12T08:40:53.739Z,16.88
2023-04-12T08:41:53.771Z,16.88
2023-04-12T08:42:53.750Z,16.88
2023-04-12T08:43:53.733Z,16.88
2023-04-12T08:44:53.725Z,28.12
2023-04-12T08:45:53.711Z,28.12
2023-04-12T08:46:53.767Z,33.75
2023-04-12T08:47:53.705Z,39.38
2023-04-12T08:48:54.388Z,33.75
2023-04-12T08:49:53.652Z,39.38
2023-04-12T08:50:53.681Z,39.38
2023-04-12T08:51:54.212Z,45.00
2023-04-12T08:52:53.968Z,45.00
2023-04-12T08:53:53.703Z,50.62
2023-04-12T08:54:54.352Z,50.62
2023-04-12T08:55:53.609Z,50.62
2023-04-12T08:56:53.608Z,45.00
2023-04-12T08:57:53.580Z,33.75
2023-04-12T08:58:53.747Z,33.75
2023-04-12T08:59:53.646Z,33.75
2023-04-12T09:00:53.762Z,33.75
2023-04-12T09:01:54.022Z,28.12
2023-04-12T09:02:53.919Z,22.50
2023-04-12T09:03:53.957Z,16.88
2023-04-12T09:04:54.069Z,16.88
2023-04-12T09:05:53.494Z,16.88
2023-04-12T09:06:53.512Z,16.88
2023-04-12T09:07:53.474Z,22.50
2023-04-12T09:08:53.499Z,22.50
2023-04-12T09:09:53.446Z,22.50
2023-04-12T09:10:53.471Z,22.50
2023-04-12T09:11:53.413Z,28.12
2023-04-12T09:12:53.425Z,22.50
2023-04-12T09:13:53.393Z,22.50
2023-04-12T09:14:53.400Z,28.12
2023-04-12T09:15:53.384Z,28.12
2023-04-12T09:16:53.472Z,28.12
2023-04-12T09:17:53.398Z,33.75
2023-04-12T09:18:53.376Z,39.38
2023-04-12T09:19:53.372Z,39.38
2023-04-12T09:20:53.336Z,28.12
2023-04-12T09:21:53.346Z,28.12
2023-04-12T09:22:53.367Z,28.12
2023-04-12T09:23:53.352Z,28.12
2023-04-12T09:24:53.351Z,28.12
2023-04-12T09:25:53.731Z,28.12
2023-04-12T09:26:53.392Z,22.50
2023-04-12T09:27:53.408Z,22.50
2023-04-12T09:28:53.252Z,22.50
2023-04-12T09:29:53.256Z,22.50
2023-04-12T09:30:53.265Z,16.88
2023-04-12T09:31:53.261Z,22.50
2023-04-12T09:32:53.235Z,22.50
2023-04-12T09:33:53.214Z,22.50
2023-04-12T09:34:53.186Z,28.12
2023-04-12T09:35:53.191Z,39.38
2023-04-12T09:36:53.194Z,33.75
2023-04-12T09:37:53.166Z,33.75
2023-04-12T09:38:53.168Z,28.12
2023-04-12T09:39:53.269Z,28.12
2023-04-12T09:40:53.147Z,22.50
2023-04-12T09:41:53.139Z,22.50
2023-04-12T09:42:53.120Z,22.50
2023-04-12T09:43:53.140Z,16.88
2023-04-12T09:44:53.108Z,16.88
2023-04-12T09:45:53.205Z,16.88
2023-04-12T09:46:53.267Z,22.50
2023-04-12T09:47:53.201Z,22.50
2023-04-12T09:48:53.124Z,28.12
2023-04-12T09:49:53.042Z,33.75
2023-04-12T09:50:53.074Z,39.38
2023-04-12T09:51:53.260Z,39.38
2023-04-12T09:52:53.073Z,33.75
2023-04-12T09:53:53.008Z,33.75
2023-04-12T09:54:53.002Z,39.38
2023-04-12T09:55:52.954Z,39.38
2023-04-12T09:56:52.962Z,39.38
2023-04-12T09:57:53.217Z,33.75
2023-04-12T09:58:52.937Z,33.75
2023-04-12T09:59:52.935Z,33.75
2023-04-12T10:00:52.904Z,33.75
2023-04-12T10:01:53.030Z,33.75
2023-04-12T10:02:53.438Z,33.75
2023-04-12T10:03:52.997Z,33.75
2023-04-12T10:04:53.181Z,39.38
2023-04-12T10:05:52.859Z,45.00
2023-04-12T10:06:52.868Z,56.25
2023-04-12T10:07:52.839Z,61.88
2023-04-12T10:08:52.872Z,61.88
2023-04-12T10:09:52.834Z,61.88
2023-04-12T10:10:52.835Z,67.50
2023-04-12T10:11:52.797Z,67.50
2023-04-12T10:12:52.835Z,73.12
2023-04-12T10:13:52.779Z,78.75
2023-04-12T10:14:52.880Z,84.38
2023-04-12T10:15:52.886Z,95.62
2023-04-12T10:16:52.783Z,106.88
2023-04-12T10:17:52.783Z,112.50
2023-04-12T10:18:52.761Z,123.75
2023-04-12T10:19:52.777Z,135.00
2023-04-12T10:20:52.697Z,146.25
2023-04-12T10:21:52.860Z,151.88
2023-04-12T10:22:52.709Z,163.12
2023-04-12T10:23:52.691Z,163.12
2023-04-12T10:24:52.670Z,151.88
2023-04-12T10:25:54.467Z,123.75
2023-04-12T10:26:52.642Z,129.38
2023-04-12T10:27:52.634Z,174.38
2023-04-12T10:28:52.616Z,180.00
2023-04-12T10:29:52.667Z,208.12
2023-04-12T10:30:52.601Z,225.00
2023-04-12T10:31:52.620Z,208.12
2023-04-12T10:32:52.642Z,225.00
2023-04-12T10:33:52.701Z,241.88
2023-04-12T10:34:52.599Z,202.50
2023-04-12T10:35:52.717Z,146.25
2023-04-12T10:36:52.618Z,135.00
2023-04-12T10:37:52.555Z,129.38
2023-04-12T10:38:52.807Z,123.75
2023-04-12T10:39:52.550Z,106.88
2023-04-12T10:40:52.578Z,106.88
2023-04-12T10:41:52.545Z,112.50
2023-04-12T10:42:52.500Z,101.25
2023-04-12T10:43:52.461Z,90.00
2023-04-12T10:44:52.571Z,78.75
2023-04-12T10:45:52.497Z,78.75
2023-04-12T10:46:52.504Z,84.38
2023-04-12T10:47:52.489Z,78.75
2023-04-12T10:48:52.514Z,73.12
2023-04-12T10:49:52.441Z,78.75
2023-04-12T10:50:52.419Z,78.75
2023-04-12T10:51:52.398Z,73.12
2023-04-12T10:52:52.432Z,61.88
2023-04-12T10:53:52.525Z,61.88
2023-04-12T10:54:52.569Z,67.50
2023-04-12T10:55:52.568Z,61.88
2023-04-12T10:56:52.445Z,56.25
2023-04-12T10:57:52.405Z,50.62
2023-04-12T10:58:52.653Z,45.00
2023-04-12T10:59:52.862Z,45.00
2023-04-12T11:00:52.375Z,39.38
2023-04-12T11:01:52.369Z,33.75
2023-04-12T11:02:52.365Z,33.75
2023-04-12T11:03:52.430Z,39.38
2023-04-12T11:04:52.337Z,45.00
2023-04-12T11:05:52.253Z,56.25
2023-04-12T11:06:52.961Z,61.88
2023-04-12T11:07:52.261Z,61.88
2023-04-12T11:08:52.258Z,61.88
2023-04-12T11:09:52.216Z,56.25
2023-04-12T11:10:52.225Z,45.00
2023-04-12T11:11:52.191Z,28.12
2023-04-12T11:12:52.181Z,33.75
2023-04-12T11:13:52.134Z,50.62
2023-04-12T11:14:52.188Z,61.88
2023-04-12T11:15:52.163Z,67.50
2023-04-12T11:16:52.186Z,73.12
2023-04-12T11:17:52.231Z,90.00
2023-04-12T11:18:52.245Z,101.25
2023-04-12T11:19:52.071Z,106.88
2023-04-12T11:20:52.099Z,112.50
2023-04-12T11:21:52.117Z,112.50
2023-04-12T11:22:52.071Z,112.50
2023-04-12T11:23:52.042Z,123.75
2023-04-12T11:24:52.111Z,146.25
2023-04-12T11:25:52.017Z,168.75
2023-04-12T11:26:52.051Z,196.88
2023-04-12T11:27:52.078Z,168.75
2023-04-12T11:28:52.015Z,129.38
2023-04-12T11:29:51.970Z,95.62
2023-04-12T11:30:51.960Z,90.00
2023-04-12T11:31:52.042Z,90.00
2023-04-12T11:32:51.953Z,95.62
2023-04-12T11:33:51.928Z,84.38
2023-04-12T11:34:52.002Z,73.12
2023-04-12T11:35:51.928Z,61.88
2023-04-12T11:36:51.929Z,50.62
2023-04-12T11:37:51.892Z,50.62
2023-04-12T11:38:52.179Z,50.62
2023-04-12T11:39:51.891Z,50.62
2023-04-12T11:40:51.908Z,56.25
2023-04-12T11:41:51.850Z,56.25
2023-04-12T11:42:51.888Z,67.50
2023-04-12T11:43:51.826Z,73.12
2023-04-12T11:44:58.925Z,78.75
2023-04-12T11:45:51.953Z,78.75
2023-04-12T11:46:51.815Z,84.38
2023-04-12T11:47:51.835Z,95.62
2023-04-12T11:48:51.858Z,106.88
2023-04-12T11:49:51.786Z,112.50
2023-04-12T11:50:59.903Z,123.75
2023-04-12T11:51:51.803Z,140.62
2023-04-12T11:52:51.819Z,151.88
2023-04-12T11:53:51.735Z,157.50
2023-04-12T11:54:51.733Z,146.25
2023-04-12T11:55:51.757Z,123.75
2023-04-12T11:56:51.698Z,106.88
2023-04-12T11:57:51.721Z,112.50
2023-04-12T11:58:51.677Z,140.62
2023-04-12T11:59:51.689Z,129.38
2023-04-12T12:00:51.651Z,123.75
2023-04-12T12:01:51.735Z,118.12
2023-04-12T12:03:51.903Z,129.38
2023-04-12T12:04:52.187Z,135.00
2023-04-12T12:05:51.739Z,151.88
2023-04-12T12:06:51.656Z,157.50
2023-04-12T12:07:51.612Z,135.00
2023-04-12T12:08:51.653Z,118.12
2023-04-12T12:09:51.736Z,123.75
2023-04-12T12:11:04.046Z,140.62
2023-04-12T12:11:51.540Z,157.50
2023-04-12T12:12:51.533Z,157.50
2023-04-12T12:13:51.526Z,163.12
2023-04-12T12:14:51.736Z,118.12
2023-04-12T12:18:40.522Z,5433.75
2023-04-12T12:19:48.165Z,5433.75
2023-04-12T12:21:56.142Z,5433.75
2023-04-12T12:22:57.110Z,5433.75
2023-04-12T12:23:57.729Z,5433.75
2023-04-12T12:24:57.135Z,5433.75
2023-04-12T12:26:06.030Z,5433.75
2023-04-12T12:26:57.113Z,5433.75
2023-04-12T12:27:57.148Z,5433.75
2023-04-12T12:28:57.046Z,5433.75
2023-04-12T12:29:57.109Z,5433.75
2023-04-12T12:30:57.098Z,5433.75
2023-04-12T12:31:57.044Z,5433.75
2023-04-12T12:32:57.191Z,5433.75
2023-04-12T12:33:57.446Z,5433.75
2023-04-12T12:34:57.168Z,5433.75
2023-04-12T12:35:57.184Z,5433.75
2023-04-12T12:36:57.004Z,5433.75
2023-04-12T12:37:56.966Z,5433.75
2023-04-12T12:38:57.121Z,5433.75
2023-04-12T12:39:56.936Z,5433.75
2023-04-12T12:40:57.202Z,5433.75
2023-04-12T12:41:57.066Z,5433.75
2023-04-12T12:42:56.906Z,5433.75
2023-04-12T12:43:57.180Z,5433.75
2023-04-12T12:44:56.880Z,5433.75
2023-04-12T12:45:57.018Z,5433.75
2023-04-12T12:47:03.351Z,5433.75
2023-04-12T12:47:57.024Z,5433.75
2023-04-12T12:48:56.896Z,5433.75
2023-04-12T12:49:56.881Z,5433.75
2023-04-12T12:50:56.855Z,5433.75
2023-04-12T12:51:56.804Z,5433.75
2023-04-12T12:52:56.833Z,5433.75
2023-04-12T12:53:57.012Z,5433.75
2023-04-12T12:54:56.784Z,5433.75
2023-04-12T12:55:56.876Z,5433.75
2023-04-12T12:56:56.781Z,5433.75
2023-04-12T12:58:07.474Z,5433.75
2023-04-12T12:58:56.997Z,5433.75
2023-04-12T12:59:56.747Z,5433.75
2023-04-12T13:00:56.707Z,5433.75
2023-04-12T13:01:56.839Z,5433.75
2023-04-12T13:02:57.147Z,5433.75
2023-04-12T13:03:56.876Z,5433.75
2023-04-12T13:04:56.813Z,5433.75